sensor_id;sensor_type;location;lat;lon;timestamp;P1;durP1;ratioP1;P2;durP2;ratioP2
45274;SDS011;31019;43.780;25.948;2024-03-07T00:00:13;28.77;;;26.98;;
45274;SDS011;31019;43.780;25.948;2024-03-07T00:02:44;28.10;;;26.40;;
45274;SDS011;31019;43.780;25.948;2024-03-07T00:05:13;29.27;;;27.38;;
45274;SDS011;31019;43.780;25.948;2024-03-07T00:07:41;29.42;;;27.52;;
45274;SDS011;31019;43.780;25.948;2024-03-07T00:10:08;30.33;;;28.63;;
45274;SDS011;31019;43.780;25.948;2024-03-07T00:12:36;40.90;;;38.47;;
45274;SDS011;31019;43.780;25.948;2024-03-07T00:15:04;32.85;;;30.98;;
45274;SDS011;31019;43.780;25.948;2024-03-07T00:17:32;31.02;;;29.02;;
45274;SDS011;31019;43.780;25.948;2024-03-07T00:20:01;34.97;;;32.95;;
45274;SDS011;31019;43.780;25.948;2024-03-07T00:22:29;34.28;;;32.38;;
45274;SDS011;31019;43.780;25.948;2024-03-07T00:24:56;33.10;;;30.80;;
45274;SDS011;31019;43.780;25.948;2024-03-07T00:27:24;34.65;;;32.58;;
45274;SDS011;31019;43.780;25.948;2024-03-07T00:29:51;33.88;;;31.77;;
45274;SDS011;31019;43.780;25.948;2024-03-07T00:32:19;34.08;;;32.08;;
45274;SDS011;31019;43.780;25.948;2024-03-07T00:34:46;32.53;;;30.00;;
45274;SDS011;31019;43.780;25.948;2024-03-07T00:37:15;33.17;;;30.98;;
45274;SDS011;31019;43.780;25.948;2024-03-07T00:39:42;31.63;;;29.73;;
45274;SDS011;31019;43.780;25.948;2024-03-07T00:42:09;32.97;;;30.90;;
45274;SDS011;31019;43.780;25.948;2024-03-07T00:44:37;37.22;;;35.13;;
45274;SDS011;31019;43.780;25.948;2024-03-07T00:47:04;31.00;;;29.20;;
45274;SDS011;31019;43.780;25.948;2024-03-07T00:49:31;29.65;;;27.65;;
45274;SDS011;31019;43.780;25.948;2024-03-07T00:51:58;35.90;;;33.80;;
45274;SDS011;31019;43.780;25.948;2024-03-07T00:54:28;56.25;;;53.28;;
45274;SDS011;31019;43.780;25.948;2024-03-07T00:56:55;48.00;;;45.47;;
45274;SDS011;31019;43.780;25.948;2024-03-07T00:59:21;50.63;;;47.83;;
45274;SDS011;31019;43.780;25.948;2024-03-07T01:01:48;42.33;;;40.03;;
45274;SDS011;31019;43.780;25.948;2024-03-07T01:04:15;42.13;;;39.83;;
45274;SDS011;31019;43.780;25.948;2024-03-07T01:06:44;50.35;;;47.58;;
45274;SDS011;31019;43.780;25.948;2024-03-07T01:09:12;50.00;;;47.20;;
45274;SDS011;31019;43.780;25.948;2024-03-07T01:11:43;53.63;;;49.30;;
45274;SDS011;31019;43.780;25.948;2024-03-07T01:14:11;46.30;;;43.80;;
45274;SDS011;31019;43.780;25.948;2024-03-07T01:16:38;52.60;;;49.30;;
45274;SDS011;31019;43.780;25.948;2024-03-07T01:19:05;53.67;;;50.47;;
45274;SDS011;31019;43.780;25.948;2024-03-07T01:21:33;52.88;;;49.92;;
45274;SDS011;31019;43.780;25.948;2024-03-07T01:24:06;55.97;;;52.85;;
45274;SDS011;31019;43.780;25.948;2024-03-07T01:26:39;61.97;;;58.47;;
45274;SDS011;31019;43.780;25.948;2024-03-07T01:29:08;65.80;;;62.28;;
45274;SDS011;31019;43.780;25.948;2024-03-07T01:31:34;61.15;;;57.85;;
45274;SDS011;31019;43.780;25.948;2024-03-07T01:34:01;64.45;;;60.65;;
45274;SDS011;31019;43.780;25.948;2024-03-07T01:36:28;72.22;;;68.22;;
45274;SDS011;31019;43.780;25.948;2024-03-07T01:38:55;73.47;;;69.45;;
45274;SDS011;31019;43.780;25.948;2024-03-07T01:41:22;64.07;;;60.47;;
45274;SDS011;31019;43.780;25.948;2024-03-07T01:43:49;53.75;;;50.75;;
45274;SDS011;31019;43.780;25.948;2024-03-07T01:46:17;60.13;;;56.83;;
45274;SDS011;31019;43.780;25.948;2024-03-07T01:48:44;57.83;;;54.53;;
45274;SDS011;31019;43.780;25.948;2024-03-07T01:51:11;53.28;;;50.17;;
45274;SDS011;31019;43.780;25.948;2024-03-07T01:53:39;30.20;;;27.98;;
45274;SDS011;31019;43.780;25.948;2024-03-07T01:56:06;28.63;;;26.83;;
45274;SDS011;31019;43.780;25.948;2024-03-07T01:58:33;35.97;;;33.58;;
45274;SDS011;31019;43.780;25.948;2024-03-07T02:01:03;37.75;;;35.13;;
45274;SDS011;31019;43.780;25.948;2024-03-07T02:03:31;32.10;;;29.95;;
45274;SDS011;31019;43.780;25.948;2024-03-07T02:05:58;33.13;;;31.10;;
45274;SDS011;31019;43.780;25.948;2024-03-07T02:08:26;38.70;;;36.42;;
45274;SDS011;31019;43.780;25.948;2024-03-07T02:10:53;32.15;;;30.25;;
45274;SDS011;31019;43.780;25.948;2024-03-07T02:13:19;32.42;;;30.42;;
45274;SDS011;31019;43.780;25.948;2024-03-07T02:15:46;36.17;;;33.58;;
45274;SDS011;31019;43.780;25.948;2024-03-07T02:18:16;35.25;;;32.85;;
45274;SDS011;31019;43.780;25.948;2024-03-07T02:20:45;29.52;;;27.73;;
45274;SDS011;31019;43.780;25.948;2024-03-07T02:23:13;30.30;;;28.40;;
45274;SDS011;31019;43.780;25.948;2024-03-07T02:25:40;31.48;;;29.58;;
45274;SDS011;31019;43.780;25.948;2024-03-07T02:28:06;31.45;;;29.60;;
45274;SDS011;31019;43.780;25.948;2024-03-07T02:30:34;34.03;;;32.03;;
45274;SDS011;31019;43.780;25.948;2024-03-07T02:33:02;29.30;;;27.50;;
45274;SDS011;31019;43.780;25.948;2024-03-07T02:35:32;29.73;;;27.73;;
45274;SDS011;31019;43.780;25.948;2024-03-07T02:38:02;34.60;;;32.70;;
45274;SDS011;31019;43.780;25.948;2024-03-07T02:40:30;35.42;;;33.05;;
45274;SDS011;31019;43.780;25.948;2024-03-07T02:42:57;29.40;;;27.60;;
45274;SDS011;31019;43.780;25.948;2024-03-07T02:45:25;27.33;;;25.58;;
45274;SDS011;31019;43.780;25.948;2024-03-07T02:47:52;29.33;;;27.52;;
45274;SDS011;31019;43.780;25.948;2024-03-07T02:50:19;31.15;;;29.27;;
45274;SDS011;31019;43.780;25.948;2024-03-07T02:52:50;27.95;;;26.13;;
45274;SDS011;31019;43.780;25.948;2024-03-07T02:55:19;27.90;;;25.92;;
45274;SDS011;31019;43.780;25.948;2024-03-07T02:57:46;28.33;;;26.52;;
45274;SDS011;31019;43.780;25.948;2024-03-07T03:00:13;32.88;;;29.02;;
45274;SDS011;31019;43.780;25.948;2024-03-07T03:05:12;30.98;;;29.15;;
45274;SDS011;31019;43.780;25.948;2024-03-07T03:07:41;30.95;;;29.08;;
45274;SDS011;31019;43.780;25.948;2024-03-07T03:10:19;33.05;;;31.25;;
45274;SDS011;31019;43.780;25.948;2024-03-07T03:12:49;30.98;;;29.17;;
45274;SDS011;31019;43.780;25.948;2024-03-07T03:15:17;25.13;;;23.63;;
45274;SDS011;31019;43.780;25.948;2024-03-07T03:17:45;29.90;;;28.20;;
45274;SDS011;31019;43.780;25.948;2024-03-07T03:20:13;35.00;;;33.10;;
45274;SDS011;31019;43.780;25.948;2024-03-07T03:22:49;33.25;;;31.33;;
45274;SDS011;31019;43.780;25.948;2024-03-07T03:25:19;27.80;;;26.10;;
45274;SDS011;31019;43.780;25.948;2024-03-07T03:27:46;29.98;;;28.33;;
45274;SDS011;31019;43.780;25.948;2024-03-07T03:30:14;33.72;;;31.73;;
45274;SDS011;31019;43.780;25.948;2024-03-07T03:32:43;35.90;;;29.45;;
45274;SDS011;31019;43.780;25.948;2024-03-07T03:35:11;30.92;;;29.02;;
45274;SDS011;31019;43.780;25.948;2024-03-07T03:37:39;29.75;;;28.05;;
45274;SDS011;31019;43.780;25.948;2024-03-07T03:40:07;29.15;;;27.30;;
45274;SDS011;31019;43.780;25.948;2024-03-07T03:42:38;36.40;;;34.60;;
45274;SDS011;31019;43.780;25.948;2024-03-07T03:45:06;30.85;;;29.15;;
45274;SDS011;31019;43.780;25.948;2024-03-07T03:47:34;28.50;;;26.90;;
45274;SDS011;31019;43.780;25.948;2024-03-07T03:50:03;27.45;;;25.95;;
45274;SDS011;31019;43.780;25.948;2024-03-07T03:52:30;35.75;;;33.75;;
45274;SDS011;31019;43.780;25.948;2024-03-07T03:54:57;33.95;;;32.03;;
45274;SDS011;31019;43.780;25.948;2024-03-07T03:57:24;30.90;;;29.02;;
45274;SDS011;31019;43.780;25.948;2024-03-07T03:59:53;36.78;;;34.97;;
45274;SDS011;31019;43.780;25.948;2024-03-07T04:02:20;31.92;;;30.23;;
45274;SDS011;31019;43.780;25.948;2024-03-07T04:04:47;26.50;;;25.00;;
45274;SDS011;31019;43.780;25.948;2024-03-07T04:07:14;26.52;;;24.92;;
45274;SDS011;31019;43.780;25.948;2024-03-07T04:09:42;30.08;;;28.30;;
45274;SDS011;31019;43.780;25.948;2024-03-07T04:12:15;28.67;;;26.98;;
45274;SDS011;31019;43.780;25.948;2024-03-07T04:14:42;26.60;;;25.10;;
45274;SDS011;31019;43.780;25.948;2024-03-07T04:17:11;26.00;;;24.45;;
45274;SDS011;31019;43.780;25.948;2024-03-07T04:19:39;44.40;;;42.00;;
45274;SDS011;31019;43.780;25.948;2024-03-07T04:22:06;46.65;;;43.70;;
45274;SDS011;31019;43.780;25.948;2024-03-07T04:24:34;45.38;;;42.85;;
45274;SDS011;31019;43.780;25.948;2024-03-07T04:27:01;48.42;;;45.80;;
45274;SDS011;31019;43.780;25.948;2024-03-07T04:29:30;48.72;;;45.08;;
45274;SDS011;31019;43.780;25.948;2024-03-07T04:31:57;41.90;;;39.60;;
45274;SDS011;31019;43.780;25.948;2024-03-07T04:34:25;27.10;;;25.60;;
45274;SDS011;31019;43.780;25.948;2024-03-07T04:36:53;27.88;;;26.15;;
45274;SDS011;31019;43.780;25.948;2024-03-07T04:39:20;32.47;;;30.05;;
45274;SDS011;31019;43.780;25.948;2024-03-07T04:41:53;37.08;;;34.15;;
45274;SDS011;31019;43.780;25.948;2024-03-07T04:44:20;33.30;;;31.10;;
45274;SDS011;31019;43.780;25.948;2024-03-07T04:46:48;36.60;;;34.15;;
45274;SDS011;31019;43.780;25.948;2024-03-07T04:49:20;37.75;;;35.55;;
45274;SDS011;31019;43.780;25.948;2024-03-07T04:51:49;33.22;;;31.00;;
45274;SDS011;31019;43.780;25.948;2024-03-07T04:54:17;28.20;;;26.27;;
45274;SDS011;31019;43.780;25.948;2024-03-07T04:56:44;29.55;;;27.85;;
45274;SDS011;31019;43.780;25.948;2024-03-07T04:59:11;33.22;;;31.10;;
45274;SDS011;31019;43.780;25.948;2024-03-07T05:01:38;30.10;;;28.17;;
45274;SDS011;31019;43.780;25.948;2024-03-07T05:04:05;58.75;;;54.65;;
45274;SDS011;31019;43.780;25.948;2024-03-07T05:06:32;37.67;;;34.33;;
45274;SDS011;31019;43.780;25.948;2024-03-07T05:09:08;27.73;;;25.02;;
45274;SDS011;31019;43.780;25.948;2024-03-07T05:11:46;44.33;;;40.33;;
45274;SDS011;31019;43.780;25.948;2024-03-07T05:14:14;50.72;;;46.22;;
45274;SDS011;31019;43.780;25.948;2024-03-07T05:16:41;56.63;;;50.92;;
45274;SDS011;31019;43.780;25.948;2024-03-07T05:19:09;34.92;;;32.83;;
45274;SDS011;31019;43.780;25.948;2024-03-07T05:21:36;33.88;;;31.60;;
45274;SDS011;31019;43.780;25.948;2024-03-07T05:24:07;32.92;;;31.13;;
45274;SDS011;31019;43.780;25.948;2024-03-07T05:26:34;35.90;;;33.85;;
45274;SDS011;31019;43.780;25.948;2024-03-07T05:29:04;27.15;;;24.85;;
45274;SDS011;31019;43.780;25.948;2024-03-07T05:31:33;27.10;;;25.48;;
45274;SDS011;31019;43.780;25.948;2024-03-07T05:34:00;26.83;;;25.13;;
45274;SDS011;31019;43.780;25.948;2024-03-07T05:36:29;26.45;;;24.85;;
45274;SDS011;31019;43.780;25.948;2024-03-07T05:38:57;28.13;;;26.05;;
45274;SDS011;31019;43.780;25.948;2024-03-07T05:41:26;30.77;;;28.92;;
45274;SDS011;31019;43.780;25.948;2024-03-07T05:43:55;25.35;;;23.67;;
45274;SDS011;31019;43.780;25.948;2024-03-07T05:46:22;26.65;;;24.85;;
45274;SDS011;31019;43.780;25.948;2024-03-07T05:48:49;27.75;;;25.92;;
45274;SDS011;31019;43.780;25.948;2024-03-07T05:51:17;29.27;;;27.33;;
45274;SDS011;31019;43.780;25.948;2024-03-07T05:53:44;26.67;;;25.17;;
45274;SDS011;31019;43.780;25.948;2024-03-07T05:56:11;29.13;;;27.42;;
45274;SDS011;31019;43.780;25.948;2024-03-07T05:58:41;26.83;;;25.23;;
45274;SDS011;31019;43.780;25.948;2024-03-07T06:01:07;25.65;;;24.05;;
45274;SDS011;31019;43.780;25.948;2024-03-07T06:03:36;28.73;;;27.08;;
45274;SDS011;31019;43.780;25.948;2024-03-07T06:06:04;30.17;;;28.40;;
45274;SDS011;31019;43.780;25.948;2024-03-07T06:08:36;27.38;;;25.77;;
45274;SDS011;31019;43.780;25.948;2024-03-07T06:11:03;29.80;;;27.67;;
45274;SDS011;31019;43.780;25.948;2024-03-07T06:13:31;27.80;;;26.08;;
45274;SDS011;31019;43.780;25.948;2024-03-07T06:15:59;30.98;;;29.23;;
45274;SDS011;31019;43.780;25.948;2024-03-07T06:18:30;32.10;;;30.15;;
45274;SDS011;31019;43.780;25.948;2024-03-07T06:20:57;33.33;;;31.13;;
45274;SDS011;31019;43.780;25.948;2024-03-07T06:23:24;30.15;;;28.35;;
45274;SDS011;31019;43.780;25.948;2024-03-07T06:25:53;34.75;;;32.55;;
45274;SDS011;31019;43.780;25.948;2024-03-07T06:28:25;32.60;;;30.60;;
45274;SDS011;31019;43.780;25.948;2024-03-07T06:30:54;32.30;;;30.30;;
45274;SDS011;31019;43.780;25.948;2024-03-07T06:33:22;32.92;;;30.98;;
45274;SDS011;31019;43.780;25.948;2024-03-07T06:35:50;30.75;;;28.98;;
45274;SDS011;31019;43.780;25.948;2024-03-07T06:38:17;29.15;;;26.90;;
45274;SDS011;31019;43.780;25.948;2024-03-07T06:40:44;30.60;;;28.80;;
45274;SDS011;31019;43.780;25.948;2024-03-07T06:43:11;31.23;;;29.33;;
45274;SDS011;31019;43.780;25.948;2024-03-07T06:45:39;29.95;;;28.17;;
45274;SDS011;31019;43.780;25.948;2024-03-07T06:48:07;29.00;;;27.30;;
45274;SDS011;31019;43.780;25.948;2024-03-07T06:50:36;32.38;;;30.35;;
45274;SDS011;31019;43.780;25.948;2024-03-07T06:53:03;29.67;;;27.83;;
45274;SDS011;31019;43.780;25.948;2024-03-07T06:55:32;29.20;;;27.60;;
45274;SDS011;31019;43.780;25.948;2024-03-07T06:58:00;34.70;;;32.63;;
45274;SDS011;31019;43.780;25.948;2024-03-07T07:00:30;34.15;;;32.05;;
45274;SDS011;31019;43.780;25.948;2024-03-07T07:03:00;29.15;;;27.50;;
45274;SDS011;31019;43.780;25.948;2024-03-07T07:05:30;29.92;;;28.25;;
45274;SDS011;31019;43.780;25.948;2024-03-07T07:07:58;34.67;;;32.78;;
45274;SDS011;31019;43.780;25.948;2024-03-07T07:10:26;31.77;;;29.98;;
45274;SDS011;31019;43.780;25.948;2024-03-07T07:12:53;31.70;;;29.77;;
45274;SDS011;31019;43.780;25.948;2024-03-07T07:15:20;33.05;;;31.02;;
45274;SDS011;31019;43.780;25.948;2024-03-07T07:17:47;32.40;;;30.58;;
45274;SDS011;31019;43.780;25.948;2024-03-07T07:20:15;32.70;;;30.92;;
45274;SDS011;31019;43.780;25.948;2024-03-07T07:22:43;36.05;;;33.63;;
45274;SDS011;31019;43.780;25.948;2024-03-07T07:25:14;37.08;;;34.88;;
45274;SDS011;31019;43.780;25.948;2024-03-07T07:27:41;33.22;;;31.13;;
45274;SDS011;31019;43.780;25.948;2024-03-07T07:30:10;32.03;;;29.92;;
45274;SDS011;31019;43.780;25.948;2024-03-07T07:32:38;29.00;;;27.40;;
45274;SDS011;31019;43.780;25.948;2024-03-07T07:35:05;32.80;;;30.92;;
45274;SDS011;31019;43.780;25.948;2024-03-07T07:37:36;30.00;;;28.20;;
45274;SDS011;31019;43.780;25.948;2024-03-07T07:40:04;30.15;;;28.45;;
45274;SDS011;31019;43.780;25.948;2024-03-07T07:42:35;33.15;;;30.80;;
45274;SDS011;31019;43.780;25.948;2024-03-07T07:45:05;30.33;;;28.52;;
45274;SDS011;31019;43.780;25.948;2024-03-07T07:47:36;31.95;;;30.35;;
45274;SDS011;31019;43.780;25.948;2024-03-07T07:50:06;31.95;;;29.90;;
45274;SDS011;31019;43.780;25.948;2024-03-07T07:52:39;30.42;;;28.80;;
45274;SDS011;31019;43.780;25.948;2024-03-07T07:55:07;37.45;;;35.25;;
45274;SDS011;31019;43.780;25.948;2024-03-07T07:57:41;33.63;;;31.52;;
45274;SDS011;31019;43.780;25.948;2024-03-07T08:00:10;35.90;;;33.70;;
45274;SDS011;31019;43.780;25.948;2024-03-07T08:02:46;34.28;;;32.38;;
45274;SDS011;31019;43.780;25.948;2024-03-07T08:05:17;32.70;;;30.45;;
45274;SDS011;31019;43.780;25.948;2024-03-07T08:07:44;30.92;;;29.13;;
45274;SDS011;31019;43.780;25.948;2024-03-07T08:10:13;33.70;;;31.77;;
45274;SDS011;31019;43.780;25.948;2024-03-07T08:12:41;34.08;;;32.08;;
45274;SDS011;31019;43.780;25.948;2024-03-07T08:15:09;34.90;;;32.90;;
45274;SDS011;31019;43.780;25.948;2024-03-07T08:17:39;39.45;;;37.15;;
45274;SDS011;31019;43.780;25.948;2024-03-07T08:20:08;41.65;;;39.35;;
45274;SDS011;31019;43.780;25.948;2024-03-07T08:22:37;39.72;;;36.90;;
45274;SDS011;31019;43.780;25.948;2024-03-07T08:25:06;31.85;;;29.92;;
45274;SDS011;31019;43.780;25.948;2024-03-07T08:27:34;31.02;;;29.20;;
45274;SDS011;31019;43.780;25.948;2024-03-07T08:30:04;46.75;;;44.22;;
45274;SDS011;31019;43.780;25.948;2024-03-07T08:32:32;34.08;;;31.98;;
45274;SDS011;31019;43.780;25.948;2024-03-07T08:35:01;33.17;;;31.08;;
45274;SDS011;31019;43.780;25.948;2024-03-07T08:37:32;30.33;;;28.38;;
45274;SDS011;31019;43.780;25.948;2024-03-07T08:40:00;29.25;;;27.35;;
45274;SDS011;31019;43.780;25.948;2024-03-07T08:42:29;29.27;;;27.38;;
45274;SDS011;31019;43.780;25.948;2024-03-07T08:44:57;30.50;;;28.60;;
45274;SDS011;31019;43.780;25.948;2024-03-07T08:47:25;35.17;;;32.75;;
45274;SDS011;31019;43.780;25.948;2024-03-07T08:49:53;32.22;;;30.23;;
45274;SDS011;31019;43.780;25.948;2024-03-07T08:52:20;31.35;;;28.85;;
45274;SDS011;31019;43.780;25.948;2024-03-07T08:54:47;29.40;;;27.45;;
45274;SDS011;31019;43.780;25.948;2024-03-07T08:57:14;29.60;;;27.17;;
45274;SDS011;31019;43.780;25.948;2024-03-07T08:59:43;29.27;;;27.33;;
45274;SDS011;31019;43.780;25.948;2024-03-07T09:02:10;32.08;;;30.17;;
45274;SDS011;31019;43.780;25.948;2024-03-07T09:04:39;36.55;;;34.45;;
45274;SDS011;31019;43.780;25.948;2024-03-07T09:07:06;35.10;;;33.00;;
45274;SDS011;31019;43.780;25.948;2024-03-07T09:09:39;29.50;;;27.50;;
45274;SDS011;31019;43.780;25.948;2024-03-07T09:12:08;39.05;;;36.75;;
45274;SDS011;31019;43.780;25.948;2024-03-07T09:14:35;41.17;;;38.78;;
45274;SDS011;31019;43.780;25.948;2024-03-07T09:17:04;49.30;;;46.60;;
45274;SDS011;31019;43.780;25.948;2024-03-07T09:19:31;40.83;;;38.63;;
45274;SDS011;31019;43.780;25.948;2024-03-07T09:22:10;39.88;;;37.38;;
45274;SDS011;31019;43.780;25.948;2024-03-07T09:24:36;43.30;;;40.90;;
45274;SDS011;31019;43.780;25.948;2024-03-07T09:27:04;29.67;;;27.98;;
45274;SDS011;31019;43.780;25.948;2024-03-07T09:29:31;36.15;;;34.10;;
45274;SDS011;31019;43.780;25.948;2024-03-07T09:31:59;44.80;;;42.38;;
45274;SDS011;31019;43.780;25.948;2024-03-07T09:34:27;49.63;;;46.88;;
45274;SDS011;31019;43.780;25.948;2024-03-07T09:36:56;46.20;;;43.38;;
45274;SDS011;31019;43.780;25.948;2024-03-07T09:39:25;50.00;;;47.35;;
45274;SDS011;31019;43.780;25.948;2024-03-07T09:41:52;45.80;;;42.63;;
45274;SDS011;31019;43.780;25.948;2024-03-07T09:44:20;49.63;;;46.72;;
45274;SDS011;31019;43.780;25.948;2024-03-07T09:46:52;45.63;;;43.20;;
45274;SDS011;31019;43.780;25.948;2024-03-07T09:49:21;30.35;;;28.35;;
45274;SDS011;31019;43.780;25.948;2024-03-07T09:51:49;35.70;;;33.35;;
45274;SDS011;31019;43.780;25.948;2024-03-07T09:54:19;30.00;;;28.10;;
45274;SDS011;31019;43.780;25.948;2024-03-07T09:56:50;30.25;;;28.08;;
45274;SDS011;31019;43.780;25.948;2024-03-07T09:59:21;32.47;;;30.67;;
45274;SDS011;31019;43.780;25.948;2024-03-07T10:01:52;30.00;;;28.15;;
45274;SDS011;31019;43.780;25.948;2024-03-07T10:04:22;29.33;;;27.42;;
45274;SDS011;31019;43.780;25.948;2024-03-07T10:06:57;32.22;;;30.23;;
45274;SDS011;31019;43.780;25.948;2024-03-07T10:09:24;31.05;;;29.05;;
45274;SDS011;31019;43.780;25.948;2024-03-07T10:11:57;27.90;;;26.20;;
45274;SDS011;31019;43.780;25.948;2024-03-07T10:14:24;32.22;;;29.90;;
45274;SDS011;31019;43.780;25.948;2024-03-07T10:16:53;30.23;;;28.42;;
45274;SDS011;31019;43.780;25.948;2024-03-07T10:19:21;31.92;;;29.85;;
45274;SDS011;31019;43.780;25.948;2024-03-07T10:21:50;32.97;;;30.10;;
45274;SDS011;31019;43.780;25.948;2024-03-07T10:24:24;29.95;;;28.05;;
45274;SDS011;31019;43.780;25.948;2024-03-07T10:26:51;31.90;;;29.90;;
45274;SDS011;31019;43.780;25.948;2024-03-07T10:29:19;32.20;;;29.95;;
45274;SDS011;31019;43.780;25.948;2024-03-07T10:31:46;30.50;;;28.58;;
45274;SDS011;31019;43.780;25.948;2024-03-07T10:34:13;28.10;;;26.30;;
45274;SDS011;31019;43.780;25.948;2024-03-07T10:36:40;31.40;;;29.13;;
45274;SDS011;31019;43.780;25.948;2024-03-07T10:39:09;31.67;;;29.58;;
45274;SDS011;31019;43.780;25.948;2024-03-07T10:41:41;33.83;;;31.73;;
45274;SDS011;31019;43.780;25.948;2024-03-07T10:46:43;29.08;;;27.17;;
45274;SDS011;31019;43.780;25.948;2024-03-07T10:49:14;31.60;;;29.10;;
45274;SDS011;31019;43.780;25.948;2024-03-07T10:51:44;30.60;;;28.20;;
45274;SDS011;31019;43.780;25.948;2024-03-07T10:54:17;25.85;;;24.15;;
45274;SDS011;31019;43.780;25.948;2024-03-07T10:56:53;28.48;;;26.50;;
45274;SDS011;31019;43.780;25.948;2024-03-07T10:59:30;32.60;;;30.13;;
45274;SDS011;31019;43.780;25.948;2024-03-07T11:02:06;27.00;;;25.10;;
45274;SDS011;31019;43.780;25.948;2024-03-07T11:04:42;27.60;;;25.75;;
45274;SDS011;31019;43.780;25.948;2024-03-07T11:07:10;29.25;;;27.35;;
45274;SDS011;31019;43.780;25.948;2024-03-07T11:09:37;29.20;;;27.35;;
45274;SDS011;31019;43.780;25.948;2024-03-07T11:12:07;31.42;;;29.42;;
45274;SDS011;31019;43.780;25.948;2024-03-07T11:14:36;30.27;;;28.38;;
45274;SDS011;31019;43.780;25.948;2024-03-07T11:17:06;29.02;;;27.08;;
45274;SDS011;31019;43.780;25.948;2024-03-07T11:19:38;30.23;;;28.20;;
45274;SDS011;31019;43.780;25.948;2024-03-07T11:22:05;31.30;;;29.30;;
45274;SDS011;31019;43.780;25.948;2024-03-07T11:24:41;29.98;;;27.88;;
45274;SDS011;31019;43.780;25.948;2024-03-07T11:27:09;31.85;;;29.75;;
45274;SDS011;31019;43.780;25.948;2024-03-07T11:29:40;32.20;;;30.10;;
45274;SDS011;31019;43.780;25.948;2024-03-07T11:32:11;33.60;;;31.30;;
45274;SDS011;31019;43.780;25.948;2024-03-07T11:34:39;36.97;;;34.47;;
45274;SDS011;31019;43.780;25.948;2024-03-07T11:37:09;35.85;;;33.55;;
45274;SDS011;31019;43.780;25.948;2024-03-07T11:39:43;36.45;;;34.05;;
45274;SDS011;31019;43.780;25.948;2024-03-07T11:42:19;37.97;;;35.47;;
45274;SDS011;31019;43.780;25.948;2024-03-07T11:44:50;37.05;;;34.65;;
45274;SDS011;31019;43.780;25.948;2024-03-07T11:47:19;32.80;;;30.70;;
45274;SDS011;31019;43.780;25.948;2024-03-07T11:49:46;29.95;;;28.15;;
45274;SDS011;31019;43.780;25.948;2024-03-07T11:52:14;29.50;;;27.80;;
45274;SDS011;31019;43.780;25.948;2024-03-07T11:54:42;30.08;;;28.27;;
45274;SDS011;31019;43.780;25.948;2024-03-07T11:57:12;37.85;;;35.40;;
45274;SDS011;31019;43.780;25.948;2024-03-07T11:59:41;33.97;;;31.77;;
45274;SDS011;31019;43.780;25.948;2024-03-07T12:02:11;37.92;;;35.40;;
45274;SDS011;31019;43.780;25.948;2024-03-07T12:04:41;31.88;;;29.88;;
45274;SDS011;31019;43.780;25.948;2024-03-07T12:07:08;37.75;;;35.35;;
45274;SDS011;31019;43.780;25.948;2024-03-07T12:09:36;38.30;;;36.00;;
45274;SDS011;31019;43.780;25.948;2024-03-07T12:12:06;40.40;;;37.90;;
45274;SDS011;31019;43.780;25.948;2024-03-07T12:14:34;39.05;;;36.13;;
45274;SDS011;31019;43.780;25.948;2024-03-07T12:17:02;37.13;;;34.92;;
45274;SDS011;31019;43.780;25.948;2024-03-07T12:19:31;37.33;;;35.13;;
45274;SDS011;31019;43.780;25.948;2024-03-07T12:22:01;27.98;;;26.27;;
45274;SDS011;31019;43.780;25.948;2024-03-07T12:24:29;32.17;;;30.17;;
45274;SDS011;31019;43.780;25.948;2024-03-07T12:27:05;30.73;;;28.83;;
45274;SDS011;31019;43.780;25.948;2024-03-07T12:29:34;31.02;;;29.13;;
45274;SDS011;31019;43.780;25.948;2024-03-07T12:32:01;33.20;;;30.70;;
45274;SDS011;31019;43.780;25.948;2024-03-07T12:34:29;34.33;;;32.22;;
45274;SDS011;31019;43.780;25.948;2024-03-07T12:36:57;33.40;;;31.35;;
45274;SDS011;31019;43.780;25.948;2024-03-07T12:39:25;32.72;;;30.52;;
45274;SDS011;31019;43.780;25.948;2024-03-07T12:41:55;32.40;;;30.40;;
45274;SDS011;31019;43.780;25.948;2024-03-07T12:44:22;31.02;;;29.02;;
45274;SDS011;31019;43.780;25.948;2024-03-07T12:46:51;31.88;;;29.65;;
45274;SDS011;31019;43.780;25.948;2024-03-07T12:49:21;25.33;;;23.73;;
45274;SDS011;31019;43.780;25.948;2024-03-07T12:51:52;26.85;;;25.05;;
45274;SDS011;31019;43.780;25.948;2024-03-07T12:54:21;26.25;;;24.55;;
45274;SDS011;31019;43.780;25.948;2024-03-07T12:56:49;31.17;;;29.30;;
45274;SDS011;31019;43.780;25.948;2024-03-07T12:59:16;34.95;;;32.67;;
45274;SDS011;31019;43.780;25.948;2024-03-07T13:01:44;37.40;;;34.65;;
45274;SDS011;31019;43.780;25.948;2024-03-07T13:04:12;35.05;;;32.95;;
45274;SDS011;31019;43.780;25.948;2024-03-07T13:06:41;33.78;;;31.55;;
45274;SDS011;31019;43.780;25.948;2024-03-07T13:09:09;34.80;;;32.25;;
45274;SDS011;31019;43.780;25.948;2024-03-07T13:11:36;34.85;;;32.75;;
45274;SDS011;31019;43.780;25.948;2024-03-07T13:14:07;36.95;;;34.42;;
45274;SDS011;31019;43.780;25.948;2024-03-07T13:16:35;36.92;;;34.70;;
45274;SDS011;31019;43.780;25.948;2024-03-07T13:19:01;34.40;;;32.30;;
45274;SDS011;31019;43.780;25.948;2024-03-07T13:21:30;33.60;;;31.50;;
45274;SDS011;31019;43.780;25.948;2024-03-07T13:23:57;34.80;;;32.60;;
45274;SDS011;31019;43.780;25.948;2024-03-07T13:26:25;33.90;;;31.90;;
45274;SDS011;31019;43.780;25.948;2024-03-07T13:28:55;37.13;;;34.95;;
45274;SDS011;31019;43.780;25.948;2024-03-07T13:31:27;32.45;;;30.50;;
45274;SDS011;31019;43.780;25.948;2024-03-07T13:33:55;36.55;;;34.15;;
45274;SDS011;31019;43.780;25.948;2024-03-07T13:36:21;29.02;;;27.20;;
45274;SDS011;31019;43.780;25.948;2024-03-07T13:38:51;30.10;;;28.30;;
45274;SDS011;31019;43.780;25.948;2024-03-07T13:41:21;30.67;;;28.67;;
45274;SDS011;31019;43.780;25.948;2024-03-07T13:43:48;34.25;;;32.15;;
45274;SDS011;31019;43.780;25.948;2024-03-07T13:46:15;33.58;;;31.38;;
45274;SDS011;31019;43.780;25.948;2024-03-07T13:48:44;34.03;;;31.92;;
45274;SDS011;31019;43.780;25.948;2024-03-07T13:53:42;35.30;;;32.65;;
45274;SDS011;31019;43.780;25.948;2024-03-07T14:02:33;34.35;;;32.25;;
45274;SDS011;31019;43.780;25.948;2024-03-07T14:05:37;35.10;;;32.70;;
45274;SDS011;31019;43.780;25.948;2024-03-07T14:08:31;31.02;;;29.02;;
45274;SDS011;31019;43.780;25.948;2024-03-07T14:14:24;38.88;;;36.10;;
45274;SDS011;31019;43.780;25.948;2024-03-07T14:17:18;36.60;;;33.65;;
45274;SDS011;31019;43.780;25.948;2024-03-07T14:23:27;31.45;;;29.45;;
45274;SDS011;31019;43.780;25.948;2024-03-07T14:26:26;31.75;;;29.55;;
45274;SDS011;31019;43.780;25.948;2024-03-07T14:29:28;31.98;;;29.52;;
45274;SDS011;31019;43.780;25.948;2024-03-07T14:32:05;30.73;;;28.77;;
45274;SDS011;31019;43.780;25.948;2024-03-07T14:34:36;32.25;;;29.75;;
45274;SDS011;31019;43.780;25.948;2024-03-07T14:37:18;31.25;;;29.15;;
45274;SDS011;31019;43.780;25.948;2024-03-07T14:39:50;32.20;;;30.00;;